sensor_id;sensor_type;location;lat;lon;timestamp;temperature;humidity
26037;DHT22;13810;48.376;10.944;2024-01-30T00:00:11;-0.80;99.90
26037;DHT22;13810;48.376;10.944;2024-01-30T00:00:42;-0.80;99.90
26037;DHT22;13810;48.376;10.944;2024-01-30T00:01:13;-0.80;99.90
26037;DHT22;13810;48.376;10.944;2024-01-30T00:01:43;-0.80;99.90
26037;DHT22;13810;48.376;10.944;2024-01-30T00:02:14;-0.80;99.90
26037;DHT22;13810;48.376;10.944;2024-01-30T00:02:45;-0.80;99.90
26037;DHT22;13810;48.376;10.944;2024-01-30T00:03:16;-0.90;99.90
26037;DHT22;13810;48.376;10.944;2024-01-30T00:03:46;-0.90;99.90
26037;DHT22;13810;48.376;10.944;2024-01-30T00:04:17;-0.90;99.90
26037;DHT22;13810;48.376;10.944;2024-01-30T00:04:48;-1.00;99.90
26037;DHT22;13810;48.376;10.944;2024-01-30T00:05:18;-1.00;99.90
26037;DHT22;13810;48.376;10.944;2024-01-30T00:05:49;-1.00;99.90
26037;DHT22;13810;48.376;10.944;2024-01-30T00:06:20;-1.00;99.90
26037;DHT22;13810;48.376;10.944;2024-01-30T00:06:54;-1.10;99.90
26037;DHT22;13810;48.376;10.944;2024-01-30T00:07:25;-1.10;99.90
26037;DHT22;13810;48.376;10.944;2024-01-30T00:07:55;-1.10;99.90
26037;DHT22;13810;48.376;10.944;2024-01-30T00:08:26;-1.20;99.90
26037;DHT22;13810;48.376;10.944;2024-01-30T00:08:57;-1.10;99.90
26037;DHT22;13810;48.376;10.944;2024-01-30T00:09:27;-1.20;99.90
26037;DHT22;13810;48.376;10.944;2024-01-30T00:09:58;-1.20;99.90
26037;DHT22;13810;48.376;10.944;2024-01-30T00:10:29;-1.20;99.90
26037;DHT22;13810;48.376;10.944;2024-01-30T00:10:59;-1.20;99.90
26037;DHT22;13810;48.376;10.944;2024-01-30T00:11:31;-1.30;99.90
26037;DHT22;13810;48.376;10.944;2024-01-30T00:12:02;-1.30;99.90
26037;DHT22;13810;48.376;10.944;2024-01-30T00:12:32;-1.30;99.90
26037;DHT22;13810;48.376;10.944;2024-01-30T00:13:03;-1.30;99.90
26037;DHT22;13810;48.376;10.944;2024-01-30T00:13:34;-1.30;99.90
26037;DHT22;13810;48.376;10.944;2024-01-30T00:14:05;-1.30;99.90
26037;DHT22;13810;48.376;10.944;2024-01-30T00:14:35;-1.30;99.90
26037;DHT22;13810;48.376;10.944;2024-01-30T00:15:06;-1.30;99.90
26037;DHT22;13810;48.376;10.944;2024-01-30T00:15:39;-1.30;99.90
26037;DHT22;13810;48.376;10.944;2024-01-30T00:16:20;-1.30;99.90
26037;DHT22;13810;48.376;10.944;2024-01-30T00:16:52;-1.30;99.90
26037;DHT22;13810;48.376;10.944;2024-01-30T00:17:22;-1.30;99.90
26037;DHT22;13810;48.376;10.944;2024-01-30T00:17:55;-1.30;99.90
26037;DHT22;13810;48.376;10.944;2024-01-30T00:18:26;-1.30;99.90
26037;DHT22;13810;48.376;10.944;2024-01-30T00:18:56;-1.30;99.90
26037;DHT22;13810;48.376;10.944;2024-01-30T00:19:27;-1.30;99.90
26037;DHT22;13810;48.376;10.944;2024-01-30T00:19:58;-1.30;99.90
26037;DHT22;13810;48.376;10.944;2024-01-30T00:20:28;-1.30;99.90
26037;DHT22;13810;48.376;10.944;2024-01-30T00:20:59;-1.30;99.90
26037;DHT22;13810;48.376;10.944;2024-01-30T00:21:30;-1.30;99.90
26037;DHT22;13810;48.376;10.944;2024-01-30T00:22:00;-1.30;99.90
26037;DHT22;13810;48.376;10.944;2024-01-30T00:22:31;-1.30;99.90
26037;DHT22;13810;48.376;10.944;2024-01-30T00:23:02;-1.30;99.90
26037;DHT22;13810;48.376;10.944;2024-01-30T00:23:33;-1.30;99.90
26037;DHT22;13810;48.376;10.944;2024-01-30T00:24:04;-1.30;99.90
26037;DHT22;13810;48.376;10.944;2024-01-30T00:24:34;-1.30;99.90
26037;DHT22;13810;48.376;10.944;2024-01-30T00:25:05;-1.30;99.90
26037;DHT22;13810;48.376;10.944;2024-01-30T00:25:36;-1.30;99.90
26037;DHT22;13810;48.376;10.944;2024-01-30T00:26:06;-1.30;99.90
26037;DHT22;13810;48.376;10.944;2024-01-30T00:26:37;-1.30;99.90
26037;DHT22;13810;48.376;10.944;2024-01-30T00:27:08;-1.30;99.90
26037;DHT22;13810;48.376;10.944;2024-01-30T00:27:39;-1.30;99.90
26037;DHT22;13810;48.376;10.944;2024-01-30T00:28:09;-1.30;99.90
26037;DHT22;13810;48.376;10.944;2024-01-30T00:28:43;-1.30;99.90
26037;DHT22;13810;48.376;10.944;2024-01-30T00:29:14;-1.30;99.90
26037;DHT22;13810;48.376;10.944;2024-01-30T00:29:49;-1.30;99.90
26037;DHT22;13810;48.376;10.944;2024-01-30T00:30:20;-1.20;99.90
26037;DHT22;13810;48.376;10.944;2024-01-30T00:30:51;-1.20;99.90
26037;DHT22;13810;48.376;10.944;2024-01-30T00:31:22;-1.20;99.90
26037;DHT22;13810;48.376;10.944;2024-01-30T00:31:52;-1.20;99.90
26037;DHT22;13810;48.376;10.944;2024-01-30T00:32:23;-1.20;99.90
26037;DHT22;13810;48.376;10.944;2024-01-30T00:32:54;-1.20;99.90
26037;DHT22;13810;48.376;10.944;2024-01-30T00:33:24;-1.20;99.90
26037;DHT22;13810;48.376;10.944;2024-01-30T00:33:55;-1.20;99.90
26037;DHT22;13810;48.376;10.944;2024-01-30T00:34:26;-1.20;99.90
26037;DHT22;13810;48.376;10.944;2024-01-30T00:34:56;-1.20;99.90
26037;DHT22;13810;48.376;10.944;2024-01-30T00:35:27;-1.20;99.90
26037;DHT22;13810;48.376;10.944;2024-01-30T00:35:59;-1.20;99.90
26037;DHT22;13810;48.376;10.944;2024-01-30T00:36:30;-1.20;99.90
26037;DHT22;13810;48.376;10.944;2024-01-30T00:37:01;-1.20;99.90
26037;DHT22;13810;48.376;10.944;2024-01-30T00:37:31;-1.20;99.90
26037;DHT22;13810;48.376;10.944;2024-01-30T00:38:02;-1.20;99.90
26037;DHT22;13810;48.376;10.944;2024-01-30T00:38:33;-1.20;99.90
26037;DHT22;13810;48.376;10.944;2024-01-30T00:39:04;-1.20;99.90
26037;DHT22;13810;48.376;10.944;2024-01-30T00:39:39;-1.20;99.90
26037;DHT22;13810;48.376;10.944;2024-01-30T00:40:10;-1.20;99.90
26037;DHT22;13810;48.376;10.944;2024-01-30T00:40:45;-1.20;99.90
26037;DHT22;13810;48.376;10.944;2024-01-30T00:41:18;-1.20;99.90
26037;DHT22;13810;48.376;10.944;2024-01-30T00:41:49;-1.20;99.90
26037;DHT22;13810;48.376;10.944;2024-01-30T00:42:20;-1.20;99.90
26037;DHT22;13810;48.376;10.944;2024-01-30T00:42:51;-1.20;99.90
26037;DHT22;13810;48.376;10.944;2024-01-30T00:43:22;-1.20;99.90
26037;DHT22;13810;48.376;10.944;2024-01-30T00:43:55;-1.20;99.90
26037;DHT22;13810;48.376;10.944;2024-01-30T00:44:25;-1.20;99.90
26037;DHT22;13810;48.376;10.944;2024-01-30T00:44:56;-1.20;99.90
26037;DHT22;13810;48.376;10.944;2024-01-30T00:45:27;-1.20;99.90
26037;DHT22;13810;48.376;10.944;2024-01-30T00:45:58;-1.20;99.90
26037;DHT22;13810;48.376;10.944;2024-01-30T00:46:29;-1.20;99.90
26037;DHT22;13810;48.376;10.944;2024-01-30T00:46:59;-1.20;99.90
26037;DHT22;13810;48.376;10.944;2024-01-30T00:47:30;-1.20;99.90
26037;DHT22;13810;48.376;10.944;2024-01-30T00:48:03;-1.20;99.90
26037;DHT22;13810;48.376;10.944;2024-01-30T00:48:34;-1.20;99.90
26037;DHT22;13810;48.376;10.944;2024-01-30T00:49:05;-1.20;99.90
26037;DHT22;13810;48.376;10.944;2024-01-30T00:49:36;-1.10;99.90
26037;DHT22;13810;48.376;10.944;2024-01-30T00:50:07;-1.10;99.90
26037;DHT22;13810;48.376;10.944;2024-01-30T00:50:37;-1.10;99.90
26037;DHT22;13810;48.376;10.944;2024-01-30T00:51:08;-1.10;99.90
26037;DHT22;13810;48.376;10.944;2024-01-30T00:51:39;-1.10;99.90
26037;DHT22;13810;48.376;10.944;2024-01-30T00:52:09;-1.10;99.90
26037;DHT22;13810;48.376;10.944;2024-01-30T00:52:40;-1.20;99.90
26037;DHT22;13810;48.376;10.944;2024-01-30T00:53:12;-1.10;99.90
26037;DHT22;13810;48.376;10.944;2024-01-30T00:53:43;-1.10;99.90
26037;DHT22;13810;48.376;10.944;2024-01-30T00:54:13;-1.10;99.90
26037;DHT22;13810;48.376;10.944;2024-01-30T00:54:44;-1.10;99.90
26037;DHT22;13810;48.376;10.944;2024-01-30T00:55:15;-1.10;99.90
26037;DHT22;13810;48.376;10.944;2024-01-30T00:55:45;-1.10;99.90
26037;DHT22;13810;48.376;10.944;2024-01-30T00:56:16;-1.10;99.90
26037;DHT22;13810;48.376;10.944;2024-01-30T00:56:48;-1.10;99.90
26037;DHT22;13810;48.376;10.944;2024-01-30T00:57:19;-1.10;99.90
26037;DHT22;13810;48.376;10.944;2024-01-30T00:57:50;-1.10;99.90
26037;DHT22;13810;48.376;10.944;2024-01-30T00:58:20;-1.10;99.90
26037;DHT22;13810;48.376;10.944;2024-01-30T00:58:51;-1.10;99.90
26037;DHT22;13810;48.376;10.944;2024-01-30T00:59:21;-1.10;99.90
26037;DHT22;13810;48.376;10.944;2024-01-30T00:59:52;-1.10;99.90
26037;DHT22;13810;48.376;10.944;2024-01-30T01:00:23;-1.10;99.90
26037;DHT22;13810;48.376;10.944;2024-01-30T01:00:59;-1.10;99.90
26037;DHT22;13810;48.376;10.944;2024-01-30T01:01:29;-1.10;99.90
26037;DHT22;13810;48.376;10.944;2024-01-30T01:02:00;-1.10;99.90
26037;DHT22;13810;48.376;10.944;2024-01-30T01:02:31;-1.20;99.90
26037;DHT22;13810;48.376;10.944;2024-01-30T01:03:02;-1.10;99.90
26037;DHT22;13810;48.376;10.944;2024-01-30T01:03:33;-1.10;99.90
26037;DHT22;13810;48.376;10.944;2024-01-30T01:04:04;-1.10;99.90
26037;DHT22;13810;48.376;10.944;2024-01-30T01:04:34;-1.10;99.90
26037;DHT22;13810;48.376;10.944;2024-01-30T01:05:05;-1.10;99.90
26037;DHT22;13810;48.376;10.944;2024-01-30T01:05:36;-1.10;99.90
26037;DHT22;13810;48.376;10.944;2024-01-30T01:06:06;-1.10;99.90
26037;DHT22;13810;48.376;10.944;2024-01-30T01:06:37;-1.10;99.90
26037;DHT22;13810;48.376;10.944;2024-01-30T01:07:08;-1.10;99.90
26037;DHT22;13810;48.376;10.944;2024-01-30T01:07:38;-1.10;99.90
26037;DHT22;13810;48.376;10.944;2024-01-30T01:08:10;-1.20;99.90
26037;DHT22;13810;48.376;10.944;2024-01-30T01:08:41;-1.10;99.90
26037;DHT22;13810;48.376;10.944;2024-01-30T01:09:11;-1.20;99.90
26037;DHT22;13810;48.376;10.944;2024-01-30T01:09:42;-1.10;99.90
26037;DHT22;13810;48.376;10.944;2024-01-30T01:10:13;-1.10;99.90
26037;DHT22;13810;48.376;10.944;2024-01-30T01:10:44;-1.10;99.90
26037;DHT22;13810;48.376;10.944;2024-01-30T01:11:14;-1.10;99.90
26037;DHT22;13810;48.376;10.944;2024-01-30T01:11:45;-1.20;99.90
26037;DHT22;13810;48.376;10.944;2024-01-30T01:12:16;-1.20;99.90
26037;DHT22;13810;48.376;10.944;2024-01-30T01:12:48;-1.20;99.90
26037;DHT22;13810;48.376;10.944;2024-01-30T01:13:30;-1.20;99.90
26037;DHT22;13810;48.376;10.944;2024-01-30T01:14:01;-1.30;99.90
26037;DHT22;13810;48.376;10.944;2024-01-30T01:14:31;-1.20;99.90
26037;DHT22;13810;48.376;10.944;2024-01-30T01:15:02;-1.20;99.90
26037;DHT22;13810;48.376;10.944;2024-01-30T01:15:33;-1.20;99.90
26037;DHT22;13810;48.376;10.944;2024-01-30T01:16:04;-1.30;99.90
26037;DHT22;13810;48.376;10.944;2024-01-30T01:16:35;-1.30;99.90
26037;DHT22;13810;48.376;10.944;2024-01-30T01:17:05;-1.30;99.90
26037;DHT22;13810;48.376;10.944;2024-01-30T01:17:37;-1.30;99.90
26037;DHT22;13810;48.376;10.944;2024-01-30T01:18:09;-1.30;99.90
26037;DHT22;13810;48.376;10.944;2024-01-30T01:18:40;-1.30;99.90
26037;DHT22;13810;48.376;10.944;2024-01-30T01:19:10;-1.30;99.90
26037;DHT22;13810;48.376;10.944;2024-01-30T01:19:41;-1.30;99.90
26037;DHT22;13810;48.376;10.944;2024-01-30T01:20:12;-1.30;99.90
26037;DHT22;13810;48.376;10.944;2024-01-30T01:20:43;-1.30;99.90
26037;DHT22;13810;48.376;10.944;2024-01-30T01:21:13;-1.30;99.90
26037;DHT22;13810;48.376;10.944;2024-01-30T01:21:44;-1.30;99.90
26037;DHT22;13810;48.376;10.944;2024-01-30T01:22:15;-1.30;99.90
26037;DHT22;13810;48.376;10.944;2024-01-30T01:22:46;-1.30;99.90
26037;DHT22;13810;48.376;10.944;2024-01-30T01:23:17;-1.30;99.90
26037;DHT22;13810;48.376;10.944;2024-01-30T01:23:47;-1.30;99.90
26037;DHT22;13810;48.376;10.944;2024-01-30T01:24:18;-1.30;99.90
26037;DHT22;13810;48.376;10.944;2024-01-30T01:24:49;-1.30;99.90
26037;DHT22;13810;48.376;10.944;2024-01-30T01:25:19;-1.20;99.90
26037;DHT22;13810;48.376;10.944;2024-01-30T01:25:50;-1.20;99.90
26037;DHT22;13810;48.376;10.944;2024-01-30T01:26:21;-1.20;99.90
26037;DHT22;13810;48.376;10.944;2024-01-30T01:26:52;-1.20;99.90
26037;DHT22;13810;48.376;10.944;2024-01-30T01:27:23;-1.30;99.90
26037;DHT22;13810;48.376;10.944;2024-01-30T01:27:53;-1.30;99.90
26037;DHT22;13810;48.376;10.944;2024-01-30T01:28:24;-1.30;99.90
26037;DHT22;13810;48.376;10.944;2024-01-30T01:28:55;-1.30;99.90
26037;DHT22;13810;48.376;10.944;2024-01-30T01:29:26;-1.30;99.90
26037;DHT22;13810;48.376;10.944;2024-01-30T01:29:59;-1.30;99.90
26037;DHT22;13810;48.376;10.944;2024-01-30T01:30:29;-1.30;99.90
26037;DHT22;13810;48.376;10.944;2024-01-30T01:31:00;-1.30;99.90
26037;DHT22;13810;48.376;10.944;2024-01-30T01:31:36;-1.30;99.90
26037;DHT22;13810;48.376;10.944;2024-01-30T01:32:10;-1.20;99.90
26037;DHT22;13810;48.376;10.944;2024-01-30T01:32:41;-1.20;99.90
26037;DHT22;13810;48.376;10.944;2024-01-30T01:33:19;-1.20;99.90
26037;DHT22;13810;48.376;10.944;2024-01-30T01:33:50;-1.20;99.90
26037;DHT22;13810;48.376;10.944;2024-01-30T01:34:21;-1.20;99.90
26037;DHT22;13810;48.376;10.944;2024-01-30T01:34:51;-1.20;99.90
26037;DHT22;13810;48.376;10.944;2024-01-30T01:35:23;-1.20;99.90
26037;DHT22;13810;48.376;10.944;2024-01-30T01:35:55;-1.20;99.90
26037;DHT22;13810;48.376;10.944;2024-01-30T01:36:26;-1.20;99.90
26037;DHT22;13810;48.376;10.944;2024-01-30T01:36:56;-1.30;99.90
26037;DHT22;13810;48.376;10.944;2024-01-30T01:37:27;-1.20;99.90
26037;DHT22;13810;48.376;10.944;2024-01-30T01:37:58;-1.20;99.90
26037;DHT22;13810;48.376;10.944;2024-01-30T01:38:30;-1.20;99.90
26037;DHT22;13810;48.376;10.944;2024-01-30T01:39:01;-1.20;99.90
26037;DHT22;13810;48.376;10.944;2024-01-30T01:39:31;-1.20;99.90
26037;DHT22;13810;48.376;10.944;2024-01-30T01:40:02;-1.20;99.90
26037;DHT22;13810;48.376;10.944;2024-01-30T01:40:33;-1.20;99.90
26037;DHT22;13810;48.376;10.944;2024-01-30T01:41:04;-1.20;99.90
26037;DHT22;13810;48.376;10.944;2024-01-30T01:41:34;-1.20;99.90
26037;DHT22;13810;48.376;10.944;2024-01-30T01:42:05;-1.20;99.90
26037;DHT22;13810;48.376;10.944;2024-01-30T01:42:35;-1.20;99.90
26037;DHT22;13810;48.376;10.944;2024-01-30T01:43:06;-1.20;99.90
26037;DHT22;13810;48.376;10.944;2024-01-30T01:43:37;-1.20;99.90
26037;DHT22;13810;48.376;10.944;2024-01-30T01:44:09;-1.30;99.90
26037;DHT22;13810;48.376;10.944;2024-01-30T01:44:40;-1.30;99.90
26037;DHT22;13810;48.376;10.944;2024-01-30T01:45:11;-1.30;99.90
26037;DHT22;13810;48.376;10.944;2024-01-30T01:45:42;-1.30;99.90
26037;DHT22;13810;48.376;10.944;2024-01-30T01:46:12;-1.20;99.90
26037;DHT22;13810;48.376;10.944;2024-01-30T01:46:43;-1.20;99.90
26037;DHT22;13810;48.376;10.944;2024-01-30T01:47:15;-1.20;99.90
26037;DHT22;13810;48.376;10.944;2024-01-30T01:47:48;-1.30;99.90
26037;DHT22;13810;48.376;10.944;2024-01-30T01:48:20;-1.30;99.90
26037;DHT22;13810;48.376;10.944;2024-01-30T01:48:51;-1.30;99.90
26037;DHT22;13810;48.376;10.944;2024-01-30T01:49:24;-1.30;99.90
26037;DHT22;13810;48.376;10.944;2024-01-30T01:49:55;-1.30;99.90
26037;DHT22;13810;48.376;10.944;2024-01-30T01:50:26;-1.30;99.90
26037;DHT22;13810;48.376;10.944;2024-01-30T01:50:57;-1.40;99.90
26037;DHT22;13810;48.376;10.944;2024-01-30T01:51:29;-1.40;99.90
26037;DHT22;13810;48.376;10.944;2024-01-30T01:52:01;-1.40;99.90
26037;DHT22;13810;48.376;10.944;2024-01-30T01:52:32;-1.40;99.90
26037;DHT22;13810;48.376;10.944;2024-01-30T01:53:03;-1.40;99.90
26037;DHT22;13810;48.376;10.944;2024-01-30T01:53:35;-1.40;99.90
26037;DHT22;13810;48.376;10.944;2024-01-30T01:54:06;-1.40;99.90
26037;DHT22;13810;48.376;10.944;2024-01-30T01:54:37;-1.40;99.90
26037;DHT22;13810;48.376;10.944;2024-01-30T01:55:07;-1.40;99.90
26037;DHT22;13810;48.376;10.944;2024-01-30T01:55:38;-1.40;99.90
26037;DHT22;13810;48.376;10.944;2024-01-30T01:56:09;-1.50;99.90
26037;DHT22;13810;48.376;10.944;2024-01-30T01:56:42;-1.40;99.90
26037;DHT22;13810;48.376;10.944;2024-01-30T01:57:13;-1.50;99.90
26037;DHT22;13810;48.376;10.944;2024-01-30T01:57:44;-1.50;99.90
26037;DHT22;13810;48.376;10.944;2024-01-30T01:58:15;-1.50;99.90
26037;DHT22;13810;48.376;10.944;2024-01-30T01:58:47;-1.50;99.90
26037;DHT22;13810;48.376;10.944;2024-01-30T01:59:20;-1.50;99.90
26037;DHT22;13810;48.376;10.944;2024-01-30T01:59:52;-1.50;99.90
26037;DHT22;13810;48.376;10.944;2024-01-30T02:00:23;-1.50;99.90
26037;DHT22;13810;48.376;10.944;2024-01-30T02:00:56;-1.50;99.90
26037;DHT22;13810;48.376;10.944;2024-01-30T02:01:27;-1.50;99.90
26037;DHT22;13810;48.376;10.944;2024-01-30T02:02:01;-1.50;99.90
26037;DHT22;13810;48.376;10.944;2024-01-30T02:02:35;-1.50;99.90
26037;DHT22;13810;48.376;10.944;2024-01-30T02:03:06;-1.50;99.90
26037;DHT22;13810;48.376;10.944;2024-01-30T02:03:38;-1.50;99.90
26037;DHT22;13810;48.376;10.944;2024-01-30T02:04:09;-1.50;99.90
26037;DHT22;13810;48.376;10.944;2024-01-30T02:04:39;-1.50;99.90
26037;DHT22;13810;48.376;10.944;2024-01-30T02:05:10;-1.50;99.90
26037;DHT22;13810;48.376;10.944;2024-01-30T02:05:41;-1.50;99.90
26037;DHT22;13810;48.376;10.944;2024-01-30T02:06:16;-1.40;99.90
26037;DHT22;13810;48.376;10.944;2024-01-30T02:06:47;-1.40;99.90
26037;DHT22;13810;48.376;10.944;2024-01-30T02:07:18;-1.40;99.90
26037;DHT22;13810;48.376;10.944;2024-01-30T02:07:48;-1.40;99.90
26037;DHT22;13810;48.376;10.944;2024-01-30T02:08:20;-1.40;99.90
26037;DHT22;13810;48.376;10.944;2024-01-30T02:08:51;-1.40;99.90
26037;DHT22;13810;48.376;10.944;2024-01-30T02:09:21;-1.40;99.90
26037;DHT22;13810;48.376;10.944;2024-01-30T02:09:52;-1.40;99.90
26037;DHT22;13810;48.376;10.944;2024-01-30T02:10:23;-1.50;99.90
26037;DHT22;13810;48.376;10.944;2024-01-30T02:10:53;-1.50;99.90
26037;DHT22;13810;48.376;10.944;2024-01-30T02:11:24;-1.50;99.90
26037;DHT22;13810;48.376;10.944;2024-01-30T02:11:55;-1.50;99.90
26037;DHT22;13810;48.376;10.944;2024-01-30T02:12:26;-1.50;99.90
26037;DHT22;13810;48.376;10.944;2024-01-30T02:12:56;-1.50;99.90
26037;DHT22;13810;48.376;10.944;2024-01-30T02:13:27;-1.50;99.90
26037;DHT22;13810;48.376;10.944;2024-01-30T02:14:02;-1.50;99.90
26037;DHT22;13810;48.376;10.944;2024-01-30T02:14:44;-1.50;99.90
26037;DHT22;13810;48.376;10.944;2024-01-30T02:15:15;-1.50;99.90
26037;DHT22;13810;48.376;10.944;2024-01-30T02:15:49;-1.50;99.90
26037;DHT22;13810;48.376;10.944;2024-01-30T02:16:20;-1.40;99.90
26037;DHT22;13810;48.376;10.944;2024-01-30T02:16:51;-1.40;99.90
26037;DHT22;13810;48.376;10.944;2024-01-30T02:17:23;-1.40;99.90
26037;DHT22;13810;48.376;10.944;2024-01-30T02:17:54;-1.40;99.90
26037;DHT22;13810;48.376;10.944;2024-01-30T02:18:25;-1.40;99.90
26037;DHT22;13810;48.376;10.944;2024-01-30T02:18:55;-1.40;99.90
26037;DHT22;13810;48.376;10.944;2024-01-30T02:19:26;-1.40;99.90
26037;DHT22;13810;48.376;10.944;2024-01-30T02:19:56;-1.40;99.90
26037;DHT22;13810;48.376;10.944;2024-01-30T02:20:29;-1.40;99.90
26037;DHT22;13810;48.376;10.944;2024-01-30T02:21:04;-1.40;99.90
26037;DHT22;13810;48.376;10.944;2024-01-30T02:21:35;-1.40;99.90
26037;DHT22;13810;48.376;10.944;2024-01-30T02:22:06;-1.40;99.90
26037;DHT22;13810;48.376;10.944;2024-01-30T02:22:37;-1.40;99.90
26037;DHT22;13810;48.376;10.944;2024-01-30T02:23:09;-1.40;99.90
26037;DHT22;13810;48.376;10.944;2024-01-30T02:23:41;-1.40;99.90
26037;DHT22;13810;48.376;10.944;2024-01-30T02:24:13;-1.40;99.90
26037;DHT22;13810;48.376;10.944;2024-01-30T02:24:43;-1.40;99.90
26037;DHT22;13810;48.376;10.944;2024-01-30T02:25:14;-1.40;99.90
26037;DHT22;13810;48.376;10.944;2024-01-30T02:25:45;-1.40;99.90
26037;DHT22;13810;48.376;10.944;2024-01-30T02:26:16;-1.50;99.90
26037;DHT22;13810;48.376;10.944;2024-01-30T02:26:46;-1.50;99.90
26037;DHT22;13810;48.376;10.944;2024-01-30T02:27:17;-1.50;99.90
26037;DHT22;13810;48.376;10.944;2024-01-30T02:27:48;-1.50;99.90
26037;DHT22;13810;48.376;10.944;2024-01-30T02:28:19;-1.50;99.90
26037;DHT22;13810;48.376;10.944;2024-01-30T02:28:50;-1.50;99.90
26037;DHT22;13810;48.376;10.944;2024-01-30T02:29:21;-1.50;99.90
26037;DHT22;13810;48.376;10.944;2024-01-30T02:29:52;-1.50;99.90
26037;DHT22;13810;48.376;10.944;2024-01-30T02:30:22;-1.50;99.90
26037;DHT22;13810;48.376;10.944;2024-01-30T02:30:53;-1.50;99.90
26037;DHT22;13810;48.376;10.944;2024-01-30T02:31:25;-1.50;99.90
26037;DHT22;13810;48.376;10.944;2024-01-30T02:31:56;-1.50;99.90
26037;DHT22;13810;48.376;10.944;2024-01-30T02:32:26;-1.50;99.90
26037;DHT22;13810;48.376;10.944;2024-01-30T02:32:57;-1.50;99.90
26037;DHT22;13810;48.376;10.944;2024-01-30T02:33:28;-1.50;99.90
26037;DHT22;13810;48.376;10.944;2024-01-30T02:33:58;-1.50;99.90
26037;DHT22;13810;48.376;10.944;2024-01-30T02:34:29;-1.50;99.90
26037;DHT22;13810;48.376;10.944;2024-01-30T02:35:00;-1.50;99.90
26037;DHT22;13810;48.376;10.944;2024-01-30T02:35:30;-1.50;99.90
26037;DHT22;13810;48.376;10.944;2024-01-30T02:36:01;-1.50;99.90
26037;DHT22;13810;48.376;10.944;2024-01-30T02:36:32;-1.50;99.90
26037;DHT22;13810;48.376;10.944;2024-01-30T02:37:02;-1.50;99.90
26037;DHT22;13810;48.376;10.944;2024-01-30T02:37:33;-1.50;99.90
26037;DHT22;13810;48.376;10.944;2024-01-30T02:38:04;-1.50;99.90
26037;DHT22;13810;48.376;10.944;2024-01-30T02:38:35;-1.50;99.90
26037;DHT22;13810;48.376;10.944;2024-01-30T02:39:06;-1.50;99.90
26037;DHT22;13810;48.376;10.944;2024-01-30T02:39:36;-1.50;99.90
26037;DHT22;13810;48.376;10.944;2024-01-30T02:40:07;-1.50;99.90
26037;DHT22;13810;48.376;10.944;2024-01-30T02:40:38;-1.50;99.90
26037;DHT22;13810;48.376;10.944;2024-01-30T02:41:08;-1.50;99.90
26037;DHT22;13810;48.376;10.944;2024-01-30T02:41:39;-1.40;99.90
26037;DHT22;13810;48.376;10.944;2024-01-30T02:42:10;-1.40;99.90
26037;DHT22;13810;48.376;10.944;2024-01-30T02:42:40;-1.40;99.90
26037;DHT22;13810;48.376;10.944;2024-01-30T02:43:12;-1.40;99.90
26037;DHT22;13810;48.376;10.944;2024-01-30T02:43:42;-1.40;99.90
26037;DHT22;13810;48.376;10.944;2024-01-30T02:44:13;-1.40;99.90
26037;DHT22;13810;48.376;10.944;2024-01-30T02:44:44;-1.40;99.90
26037;DHT22;13810;48.376;10.944;2024-01-30T02:45:14;-1.30;99.90
26037;DHT22;13810;48.376;10.944;2024-01-30T02:45:45;-1.30;99.90
26037;DHT22;13810;48.376;10.944;2024-01-30T02:46:16;-1.30;99.90
26037;DHT22;13810;48.376;10.944;2024-01-30T02:46:46;-1.30;99.90
26037;DHT22;13810;48.376;10.944;2024-01-30T02:47:17;-1.30;99.90
26037;DHT22;13810;48.376;10.944;2024-01-30T02:47:48;-1.30;99.90
26037;DHT22;13810;48.376;10.944;2024-01-30T02:48:18;-1.30;99.90
26037;DHT22;13810;48.376;10.944;2024-01-30T02:48:49;-1.30;99.90
26037;DHT22;13810;48.376;10.944;2024-01-30T02:49:20;-1.30;99.90
26037;DHT22;13810;48.376;10.944;2024-01-30T02:49:51;-1.30;99.90
26037;DHT22;13810;48.376;10.944;2024-01-30T02:50:22;-1.30;99.90
26037;DHT22;13810;48.376;10.944;2024-01-30T02:50:52;-1.30;99.90
26037;DHT22;13810;48.376;10.944;2024-01-30T02:51:23;-1.40;99.90
26037;DHT22;13810;48.376;10.944;2024-01-30T02:51:54;-1.30;99.90
26037;DHT22;13810;48.376;10.944;2024-01-30T02:52:25;-1.40;99.90
26037;DHT22;13810;48.376;10.944;2024-01-30T02:52:56;-1.40;99.90
26037;DHT22;13810;48.376;10.944;2024-01-30T02:53:26;-1.40;99.90
26037;DHT22;13810;48.376;10.944;2024-01-30T02:53:57;-1.40;99.90
26037;DHT22;13810;48.376;10.944;2024-01-30T02:54:28;-1.40;99.90
26037;DHT22;13810;48.376;10.944;2024-01-30T02:54:58;-1.40;99.90
26037;DHT22;13810;48.376;10.944;2024-01-30T02:55:29;-1.40;99.90
26037;DHT22;13810;48.376;10.944;2024-01-30T02:56:00;-1.40;99.90
26037;DHT22;13810;48.376;10.944;2024-01-30T02:56:30;-1.40;99.90
26037;DHT22;13810;48.376;10.944;2024-01-30T02:57:01;-1.40;99.90
26037;DHT22;13810;48.376;10.944;2024-01-30T02:57:32;-1.40;99.90
26037;DHT22;13810;48.376;10.944;2024-01-30T02:58:02;-1.40;99.90
26037;DHT22;13810;48.376;10.944;2024-01-30T02:58:33;-1.50;99.90
26037;DHT22;13810;48.376;10.944;2024-01-30T02:59:04;-1.50;99.90
26037;DHT22;13810;48.376;10.944;2024-01-30T02:59:34;-1.50;99.90
26037;DHT22;13810;48.376;10.944;2024-01-30T03:00:06;-1.50;99.90
26037;DHT22;13810;48.376;10.944;2024-01-30T03:00:39;-1.50;99.90
26037;DHT22;13810;48.376;10.944;2024-01-30T03:01:10;-1.60;99.90
26037;DHT22;13810;48.376;10.944;2024-01-30T03:01:44;-1.60;99.90
26037;DHT22;13810;48.376;10.944;2024-01-30T03:02:15;-1.60;99.90
26037;DHT22;13810;48.376;10.944;2024-01-30T03:02:46;-1.60;99.90
26037;DHT22;13810;48.376;10.944;2024-01-30T03:03:16;-1.60;99.90
26037;DHT22;13810;48.376;10.944;2024-01-30T03:03:47;-1.60;99.90
26037;DHT22;13810;48.376;10.944;2024-01-30T03:04:18;-1.60;99.90
26037;DHT22;13810;48.376;10.944;2024-01-30T03:04:48;-1.60;99.90
26037;DHT22;13810;48.376;10.944;2024-01-30T03:05:19;-1.60;99.90
26037;DHT22;13810;48.376;10.944;2024-01-30T03:05:50;-1.60;99.90
26037;DHT22;13810;48.376;10.944;2024-01-30T03:06:20;-1.60;99.90
26037;DHT22;13810;48.376;10.944;2024-01-30T03:06:52;-1.60;99.90
26037;DHT22;13810;48.376;10.944;2024-01-30T03:07:23;-1.60;99.90
26037;DHT22;13810;48.376;10.944;2024-01-30T03:07:54;-1.60;99.90
26037;DHT22;13810;48.376;10.944;2024-01-30T03:08:24;-1.60;99.90
26037;DHT22;13810;48.376;10.944;2024-01-30T03:08:55;-1.60;99.90
26037;DHT22;13810;48.376;10.944;2024-01-30T03:09:26;-1.60;99.90
26037;DHT22;13810;48.376;10.944;2024-01-30T03:09:56;-1.50;99.90
26037;DHT22;13810;48.376;10.944;2024-01-30T03:10:27;-1.50;99.90
26037;DHT22;13810;48.376;10.944;2024-01-30T03:10:58;-1.50;99.90
26037;DHT22;13810;48.376;10.944;2024-01-30T03:11:28;-1.50;99.90
26037;DHT22;13810;48.376;10.944;2024-01-30T03:11:59;-1.50;99.90
26037;DHT22;13810;48.376;10.944;2024-01-30T03:12:30;-1.50;99.90
26037;DHT22;13810;48.376;10.944;2024-01-30T03:13:00;-1.50;99.90
26037;DHT22;13810;48.376;10.944;2024-01-30T03:13:31;-1.50;99.90